sensor_id;sensor_type;location;lat;lon;timestamp;temperature;humidity
19781;DHT22;10050;55.492;13.506;2022-11-15T00:42:47;9.10;99.90
19781;DHT22;10050;55.492;13.506;2022-11-15T00:45:13;9.10;99.90
19781;DHT22;10050;55.492;13.506;2022-11-15T00:47:39;9.10;99.90
19781;DHT22;10050;55.492;13.506;2022-11-15T00:56:56;9.00;99.90
19781;DHT22;10050;55.492;13.506;2022-11-15T01:11:55;9.00;99.90
19781;DHT22;10050;55.492;13.506;2022-11-15T01:14:28;9.00;99.90
19781;DHT22;10050;55.492;13.506;2022-11-15T01:30:48;9.00;99.90
19781;DHT22;10050;55.492;13.506;2022-11-15T01:50:38;9.00;99.90
19781;DHT22;10050;55.492;13.506;2022-11-15T02:07:11;8.90;99.90
19781;DHT22;10050;55.492;13.506;2022-11-15T03:06:32;9.00;99.90
19781;DHT22;10050;55.492;13.506;2022-11-15T03:12:57;9.00;99.90
19781;DHT22;10050;55.492;13.506;2022-11-15T03:16:19;9.00;99.90
19781;DHT22;10050;55.492;13.506;2022-11-15T03:19:17;9.00;99.90
19781;DHT22;10050;55.492;13.506;2022-11-15T03:22:23;9.00;99.90
19781;DHT22;10050;55.492;13.506;2022-11-15T03:29:27;9.00;99.90
19781;DHT22;10050;55.492;13.506;2022-11-15T03:45:18;9.00;99.90
19781;DHT22;10050;55.492;13.506;2022-11-15T04:04:27;9.00;99.90
19781;DHT22;10050;55.492;13.506;2022-11-15T04:59:11;8.90;99.90
19781;DHT22;10050;55.492;13.506;2022-11-15T05:01:39;8.90;99.90
19781;DHT22;10050;55.492;13.506;2022-11-15T05:04:09;8.90;99.90
19781;DHT22;10050;55.492;13.506;2022-11-15T05:07:10;8.90;99.90
19781;DHT22;10050;55.492;13.506;2022-11-15T05:10:54;8.90;99.90
19781;DHT22;10050;55.492;13.506;2022-11-15T05:27:20;8.90;99.90
19781;DHT22;10050;55.492;13.506;2022-11-15T05:36:47;8.90;99.90
19781;DHT22;10050;55.492;13.506;2022-11-15T05:39:53;8.90;99.90
19781;DHT22;10050;55.492;13.506;2022-11-15T05:45:47;9.00;99.90
19781;DHT22;10050;55.492;13.506;2022-11-15T06:32:22;9.10;99.90
19781;DHT22;10050;55.492;13.506;2022-11-15T06:38:28;9.10;99.90
19781;DHT22;10050;55.492;13.506;2022-11-15T06:57:35;9.20;99.90
19781;DHT22;10050;55.492;13.506;2022-11-15T07:00:23;9.20;99.90
19781;DHT22;10050;55.492;13.506;2022-11-15T07:02:49;9.20;99.90
19781;DHT22;10050;55.492;13.506;2022-11-15T07:14:00;9.30;99.90
19781;DHT22;10050;55.492;13.506;2022-11-15T07:16:38;9.40;99.90
19781;DHT22;10050;55.492;13.506;2022-11-15T07:19:06;9.40;99.90
19781;DHT22;10050;55.492;13.506;2022-11-15T07:21:32;9.40;99.90
19781;DHT22;10050;55.492;13.506;2022-11-15T07:24:06;9.40;99.90
19781;DHT22;10050;55.492;13.506;2022-11-15T07:29:47;9.40;99.90
19781;DHT22;10050;55.492;13.506;2022-11-15T07:32:27;9.40;99.90
19781;DHT22;10050;55.492;13.506;2022-11-15T07:34:58;9.40;99.90
19781;DHT22;10050;55.492;13.506;2022-11-15T07:37:35;9.40;99.90
19781;DHT22;10050;55.492;13.506;2022-11-15T07:40:01;9.40;99.90
19781;DHT22;10050;55.492;13.506;2022-11-15T07:42:36;9.40;99.90
19781;DHT22;10050;55.492;13.506;2022-11-15T07:45:40;9.40;99.90
19781;DHT22;10050;55.492;13.506;2022-11-15T07:48:21;9.50;99.90
19781;DHT22;10050;55.492;13.506;2022-11-15T07:58:10;9.50;99.90
19781;DHT22;10050;55.492;13.506;2022-11-15T09:20:49;9.70;99.90
19781;DHT22;10050;55.492;13.506;2022-11-15T09:23:15;9.70;99.90
19781;DHT22;10050;55.492;13.506;2022-11-15T09:26:00;9.70;99.90
19781;DHT22;10050;55.492;13.506;2022-11-15T09:50:44;9.60;99.90
19781;DHT22;10050;55.492;13.506;2022-11-15T10:00:40;9.70;99.90
19781;DHT22;10050;55.492;13.506;2022-11-15T10:03:41;9.60;99.90
19781;DHT22;10050;55.492;13.506;2022-11-15T10:07:18;9.60;99.90
19781;DHT22;10050;55.492;13.506;2022-11-15T10:13:36;9.70;99.90
19781;DHT22;10050;55.492;13.506;2022-11-15T10:19:32;9.70;99.90
19781;DHT22;10050;55.492;13.506;2022-11-15T10:24:42;9.70;99.90
19781;DHT22;10050;55.492;13.506;2022-11-15T10:27:15;9.70;99.90
19781;DHT22;10050;55.492;13.506;2022-11-15T10:29:47;9.70;99.90
19781;DHT22;10050;55.492;13.506;2022-11-15T10:32:15;9.70;99.90
19781;DHT22;10050;55.492;13.506;2022-11-15T10:34:41;9.70;99.90
19781;DHT22;10050;55.492;13.506;2022-11-15T10:37:06;9.70;99.90
19781;DHT22;10050;55.492;13.506;2022-11-15T10:39:33;9.70;99.90
19781;DHT22;10050;55.492;13.506;2022-11-15T10:42:29;9.70;99.90
19781;DHT22;10050;55.492;13.506;2022-11-15T10:44:59;9.80;99.90
19781;DHT22;10050;55.492;13.506;2022-11-15T10:47:29;9.70;99.90
19781;DHT22;10050;55.492;13.506;2022-11-15T10:50:06;9.70;99.90
19781;DHT22;10050;55.492;13.506;2022-11-15T10:52:34;9.70;99.90
19781;DHT22;10050;55.492;13.506;2022-11-15T10:57:53;9.70;99.90
19781;DHT22;10050;55.492;13.506;2022-11-15T11:02:58;9.70;99.90
19781;DHT22;10050;55.492;13.506;2022-11-15T11:05:35;9.70;99.90
19781;DHT22;10050;55.492;13.506;2022-11-15T11:08:20;9.70;99.90
19781;DHT22;10050;55.492;13.506;2022-11-15T11:10:58;9.70;99.90
19781;DHT22;10050;55.492;13.506;2022-11-15T11:13:28;9.70;99.90
19781;DHT22;10050;55.492;13.506;2022-11-15T11:19:08;9.70;99.90
19781;DHT22;10050;55.492;13.506;2022-11-15T11:27:34;9.70;99.90
19781;DHT22;10050;55.492;13.506;2022-11-15T11:39:02;9.70;99.90
19781;DHT22;10050;55.492;13.506;2022-11-15T11:47:23;9.70;99.90
19781;DHT22;10050;55.492;13.506;2022-11-15T11:50:14;9.80;99.90
19781;DHT22;10050;55.492;13.506;2022-11-15T11:53:05;9.80;99.90
19781;DHT22;10050;55.492;13.506;2022-11-15T11:58:41;9.70;99.90
19781;DHT22;10050;55.492;13.506;2022-11-15T12:01:35;9.70;99.90
19781;DHT22;10050;55.492;13.506;2022-11-15T12:04:23;9.70;99.90
19781;DHT22;10050;55.492;13.506;2022-11-15T12:07:02;9.70;99.90
19781;DHT22;10050;55.492;13.506;2022-11-15T12:10:25;9.80;99.90
19781;DHT22;10050;55.492;13.506;2022-11-15T12:12:50;9.70;99.90
19781;DHT22;10050;55.492;13.506;2022-11-15T12:15:47;9.70;99.90
19781;DHT22;10050;55.492;13.506;2022-11-15T12:18:25;9.80;99.90
19781;DHT22;10050;55.492;13.506;2022-11-15T12:21:13;9.80;99.90
19781;DHT22;10050;55.492;13.506;2022-11-15T12:23:52;9.80;99.90
19781;DHT22;10050;55.492;13.506;2022-11-15T12:26:25;9.80;99.90
19781;DHT22;10050;55.492;13.506;2022-11-15T12:28:59;9.80;99.90
19781;DHT22;10050;55.492;13.506;2022-11-15T12:31:54;9.80;99.90
19781;DHT22;10050;55.492;13.506;2022-11-15T12:36:54;9.80;99.90
19781;DHT22;10050;55.492;13.506;2022-11-15T12:43:07;9.80;99.90
19781;DHT22;10050;55.492;13.506;2022-11-15T12:45:38;9.70;99.90
19781;DHT22;10050;55.492;13.506;2022-11-15T12:58:45;9.70;99.90
19781;DHT22;10050;55.492;13.506;2022-11-15T13:04:23;9.70;99.90
19781;DHT22;10050;55.492;13.506;2022-11-15T13:06:57;9.60;99.90
19781;DHT22;10050;55.492;13.506;2022-11-15T13:14:52;9.60;99.90
19781;DHT22;10050;55.492;13.506;2022-11-15T13:17:42;9.50;99.90
19781;DHT22;10050;55.492;13.506;2022-11-15T13:20:30;9.60;99.90
19781;DHT22;10050;55.492;13.506;2022-11-15T13:28:08;9.50;99.90
19781;DHT22;10050;55.492;13.506;2022-11-15T13:30:36;9.60;99.90
19781;DHT22;10050;55.492;13.506;2022-11-15T13:33:13;9.60;99.90
19781;DHT22;10050;55.492;13.506;2022-11-15T13:35:41;9.60;99.90
19781;DHT22;10050;55.492;13.506;2022-11-15T13:38:33;9.60;99.90
19781;DHT22;10050;55.492;13.506;2022-11-15T13:41:18;9.60;99.90
19781;DHT22;10050;55.492;13.506;2022-11-15T13:43:46;9.60;99.90
19781;DHT22;10050;55.492;13.506;2022-11-15T13:48:46;9.60;99.90
19781;DHT22;10050;55.492;13.506;2022-11-15T13:51:26;9.60;99.90
19781;DHT22;10050;55.492;13.506;2022-11-15T13:54:07;9.60;99.90
19781;DHT22;10050;55.492;13.506;2022-11-15T13:56:35;9.60;99.90
19781;DHT22;10050;55.492;13.506;2022-11-15T13:59:10;9.60;99.90
19781;DHT22;10050;55.492;13.506;2022-11-15T14:01:41;9.60;99.90
19781;DHT22;10050;55.492;13.506;2022-11-15T14:04:12;9.60;99.90
19781;DHT22;10050;55.492;13.506;2022-11-15T14:06:45;9.60;99.90
19781;DHT22;10050;55.492;13.506;2022-11-15T14:11:48;9.50;99.90
19781;DHT22;10050;55.492;13.506;2022-11-15T14:14:15;9.50;99.90
19781;DHT22;10050;55.492;13.506;2022-11-15T14:24:36;9.50;99.90
19781;DHT22;10050;55.492;13.506;2022-11-15T14:29:47;9.50;99.90
19781;DHT22;10050;55.492;13.506;2022-11-15T14:32:16;9.50;99.90
19781;DHT22;10050;55.492;13.506;2022-11-15T14:34:43;9.50;99.90
19781;DHT22;10050;55.492;13.506;2022-11-15T14:37:32;9.50;99.90
19781;DHT22;10050;55.492;13.506;2022-11-15T14:40:01;9.50;99.90
19781;DHT22;10050;55.492;13.506;2022-11-15T14:42:27;9.50;99.90
19781;DHT22;10050;55.492;13.506;2022-11-15T14:44:53;9.50;99.90
19781;DHT22;10050;55.492;13.506;2022-11-15T14:47:19;9.50;99.90
19781;DHT22;10050;55.492;13.506;2022-11-15T14:49:45;9.60;99.90
19781;DHT22;10050;55.492;13.506;2022-11-15T14:52:23;9.60;99.90
19781;DHT22;10050;55.492;13.506;2022-11-15T14:54:49;9.60;99.90
19781;DHT22;10050;55.492;13.506;2022-11-15T14:57:15;9.50;99.90
19781;DHT22;10050;55.492;13.506;2022-11-15T14:59:41;9.50;99.90
19781;DHT22;10050;55.492;13.506;2022-11-15T15:02:19;9.50;99.90
19781;DHT22;10050;55.492;13.506;2022-11-15T15:04:46;9.50;99.90
19781;DHT22;10050;55.492;13.506;2022-11-15T15:07:12;9.50;99.90
19781;DHT22;10050;55.492;13.506;2022-11-15T15:09:38;9.40;99.90
19781;DHT22;10050;55.492;13.506;2022-11-15T15:12:08;9.40;99.90
19781;DHT22;10050;55.492;13.506;2022-11-15T15:14:41;9.40;99.90
19781;DHT22;10050;55.492;13.506;2022-11-15T15:17:12;9.40;99.90
19781;DHT22;10050;55.492;13.506;2022-11-15T15:19:40;9.40;99.90
19781;DHT22;10050;55.492;13.506;2022-11-15T15:22:08;9.40;99.90
19781;DHT22;10050;55.492;13.506;2022-11-15T15:24:36;9.40;99.90
19781;DHT22;10050;55.492;13.506;2022-11-15T15:27:02;9.40;99.90
19781;DHT22;10050;55.492;13.506;2022-11-15T15:29:28;9.40;99.90
19781;DHT22;10050;55.492;13.506;2022-11-15T15:31:58;9.40;99.90
19781;DHT22;10050;55.492;13.506;2022-11-15T15:34:27;9.40;99.90
19781;DHT22;10050;55.492;13.506;2022-11-15T15:37:25;9.30;99.90
19781;DHT22;10050;55.492;13.506;2022-11-15T15:39:57;9.40;99.90
19781;DHT22;10050;55.492;13.506;2022-11-15T15:42:26;9.40;99.90
19781;DHT22;10050;55.492;13.506;2022-11-15T15:44:52;9.40;99.90
19781;DHT22;10050;55.492;13.506;2022-11-15T15:47:20;9.40;99.90
19781;DHT22;10050;55.492;13.506;2022-11-15T15:50:20;9.40;99.90
19781;DHT22;10050;55.492;13.506;2022-11-15T15:56:08;9.40;99.90
19781;DHT22;10050;55.492;13.506;2022-11-15T15:58:43;9.40;99.90
19781;DHT22;10050;55.492;13.506;2022-11-15T16:01:32;9.40;99.90
19781;DHT22;10050;55.492;13.506;2022-11-15T16:08:03;9.40;99.90
19781;DHT22;10050;55.492;13.506;2022-11-15T16:10:33;9.40;99.90
19781;DHT22;10050;55.492;13.506;2022-11-15T16:13:06;9.40;99.90
19781;DHT22;10050;55.492;13.506;2022-11-15T16:15:54;9.40;99.90
19781;DHT22;10050;55.492;13.506;2022-11-15T16:18:45;9.40;99.90
19781;DHT22;10050;55.492;13.506;2022-11-15T16:49:52;9.40;99.90
19781;DHT22;10050;55.492;13.506;2022-11-15T16:52:37;9.40;99.90
19781;DHT22;10050;55.492;13.506;2022-11-15T16:55:09;9.40;99.90
19781;DHT22;10050;55.492;13.506;2022-11-15T16:57:57;9.40;99.90
19781;DHT22;10050;55.492;13.506;2022-11-15T17:38:04;9.40;99.90
19781;DHT22;10050;55.492;13.506;2022-11-15T18:28:37;9.10;99.90
19781;DHT22;10050;55.492;13.506;2022-11-15T18:41:18;9.10;99.90
19781;DHT22;10050;55.492;13.506;2022-11-15T18:44:04;9.10;99.90
19781;DHT22;10050;55.492;13.506;2022-11-15T18:59:35;9.20;99.90
19781;DHT22;10050;55.492;13.506;2022-11-15T19:02:05;9.20;99.90
19781;DHT22;10050;55.492;13.506;2022-11-15T19:05:07;9.20;99.90
19781;DHT22;10050;55.492;13.506;2022-11-15T19:08:14;9.20;99.90
19781;DHT22;10050;55.492;13.506;2022-11-15T19:11:15;9.20;99.90
19781;DHT22;10050;55.492;13.506;2022-11-15T19:14:13;9.30;99.90
19781;DHT22;10050;55.492;13.506;2022-11-15T19:16:41;9.20;99.90
19781;DHT22;10050;55.492;13.506;2022-11-15T19:19:13;9.20;99.90
19781;DHT22;10050;55.492;13.506;2022-11-15T19:21:45;9.30;99.90
19781;DHT22;10050;55.492;13.506;2022-11-15T19:24:31;9.30;99.90
19781;DHT22;10050;55.492;13.506;2022-11-15T19:26:58;9.20;99.90
19781;DHT22;10050;55.492;13.506;2022-11-15T19:29:23;9.30;99.90
19781;DHT22;10050;55.492;13.506;2022-11-15T19:31:50;9.20;99.90
19781;DHT22;10050;55.492;13.506;2022-11-15T19:34:16;9.20;99.90
19781;DHT22;10050;55.492;13.506;2022-11-15T19:36:43;9.20;99.90
19781;DHT22;10050;55.492;13.506;2022-11-15T19:39:11;9.10;99.90
19781;DHT22;10050;55.492;13.506;2022-11-15T19:41:40;9.10;99.90
19781;DHT22;10050;55.492;13.506;2022-11-15T19:44:09;9.20;99.90
19781;DHT22;10050;55.492;13.506;2022-11-15T19:46:37;9.10;99.90
19781;DHT22;10050;55.492;13.506;2022-11-15T19:49:04;9.10;99.90
19781;DHT22;10050;55.492;13.506;2022-11-15T19:51:36;9.10;99.90
19781;DHT22;10050;55.492;13.506;2022-11-15T19:54:39;9.00;99.90
19781;DHT22;10050;55.492;13.506;2022-11-15T20:00:11;9.00;99.90
19781;DHT22;10050;55.492;13.506;2022-11-15T20:02:45;9.00;99.90
19781;DHT22;10050;55.492;13.506;2022-11-15T20:05:15;9.10;99.90
19781;DHT22;10050;55.492;13.506;2022-11-15T20:07:54;9.10;99.90
19781;DHT22;10050;55.492;13.506;2022-11-15T20:10:50;9.10;99.90
19781;DHT22;10050;55.492;13.506;2022-11-15T20:13:21;9.10;99.90
19781;DHT22;10050;55.492;13.506;2022-11-15T20:15:47;9.10;99.90
19781;DHT22;10050;55.492;13.506;2022-11-15T20:18:13;9.10;99.90
19781;DHT22;10050;55.492;13.506;2022-11-15T20:20:39;9.10;99.90
19781;DHT22;10050;55.492;13.506;2022-11-15T20:23:05;9.20;99.90
19781;DHT22;10050;55.492;13.506;2022-11-15T20:25:31;9.20;99.90
19781;DHT22;10050;55.492;13.506;2022-11-15T20:28:20;9.20;99.90
19781;DHT22;10050;55.492;13.506;2022-11-15T20:30:55;9.20;99.90
19781;DHT22;10050;55.492;13.506;2022-11-15T20:33:22;9.10;99.90
19781;DHT22;10050;55.492;13.506;2022-11-15T20:35:49;9.10;99.90
19781;DHT22;10050;55.492;13.506;2022-11-15T20:38:15;9.10;99.90
19781;DHT22;10050;55.492;13.506;2022-11-15T20:40:44;9.10;99.90
19781;DHT22;10050;55.492;13.506;2022-11-15T20:43:11;9.10;99.90
19781;DHT22;10050;55.492;13.506;2022-11-15T20:45:38;9.10;99.90
19781;DHT22;10050;55.492;13.506;2022-11-15T20:48:05;9.10;99.90
19781;DHT22;10050;55.492;13.506;2022-11-15T20:50:32;9.00;99.90
19781;DHT22;10050;55.492;13.506;2022-11-15T20:53:01;9.00;99.90
19781;DHT22;10050;55.492;13.506;2022-11-15T20:55:27;9.00;99.90
19781;DHT22;10050;55.492;13.506;2022-11-15T20:57:52;9.00;99.90
19781;DHT22;10050;55.492;13.506;2022-11-15T21:00:18;9.00;99.90
19781;DHT22;10050;55.492;13.506;2022-11-15T21:02:48;9.00;99.90
19781;DHT22;10050;55.492;13.506;2022-11-15T21:05:15;8.90;99.90
19781;DHT22;10050;55.492;13.506;2022-11-15T21:07:44;8.90;99.90
19781;DHT22;10050;55.492;13.506;2022-11-15T21:10:14;8.90;99.90
19781;DHT22;10050;55.492;13.506;2022-11-15T21:13:01;8.90;99.90
19781;DHT22;10050;55.492;13.506;2022-11-15T21:15:35;8.90;99.90
19781;DHT22;10050;55.492;13.506;2022-11-15T21:18:26;8.90;99.90
19781;DHT22;10050;55.492;13.506;2022-11-15T21:21:09;8.90;99.90
19781;DHT22;10050;55.492;13.506;2022-11-15T21:23:43;8.90;99.90
19781;DHT22;10050;55.492;13.506;2022-11-15T21:26:14;8.90;99.90
19781;DHT22;10050;55.492;13.506;2022-11-15T21:28:39;8.80;99.90
19781;DHT22;10050;55.492;13.506;2022-11-15T21:31:06;8.80;99.90
19781;DHT22;10050;55.492;13.506;2022-11-15T21:33:33;8.80;99.90
19781;DHT22;10050;55.492;13.506;2022-11-15T21:36:13;8.80;99.90
19781;DHT22;10050;55.492;13.506;2022-11-15T21:38:59;8.80;99.90
19781;DHT22;10050;55.492;13.506;2022-11-15T21:41:28;8.80;99.90
19781;DHT22;10050;55.492;13.506;2022-11-15T21:44:02;8.90;99.90
19781;DHT22;10050;55.492;13.506;2022-11-15T21:46:29;8.90;99.90
19781;DHT22;10050;55.492;13.506;2022-11-15T21:48:56;8.90;99.90
19781;DHT22;10050;55.492;13.506;2022-11-15T21:51:22;8.90;99.90
19781;DHT22;10050;55.492;13.506;2022-11-15T21:53:48;8.90;99.90
19781;DHT22;10050;55.492;13.506;2022-11-15T21:56:15;8.90;99.90
19781;DHT22;10050;55.492;13.506;2022-11-15T21:58:51;8.90;99.90
19781;DHT22;10050;55.492;13.506;2022-11-15T22:01:24;8.90;99.90
19781;DHT22;10050;55.492;13.506;2022-11-15T22:04:11;8.80;99.90
19781;DHT22;10050;55.492;13.506;2022-11-15T22:06:42;8.80;99.90
19781;DHT22;10050;55.492;13.506;2022-11-15T22:09:20;8.70;99.90
19781;DHT22;10050;55.492;13.506;2022-11-15T22:12:08;8.70;99.90
19781;DHT22;10050;55.492;13.506;2022-11-15T22:15:05;8.70;99.90
19781;DHT22;10050;55.492;13.506;2022-11-15T22:17:46;8.70;99.90
19781;DHT22;10050;55.492;13.506;2022-11-15T22:20:29;8.60;99.90
19781;DHT22;10050;55.492;13.506;2022-11-15T22:22:56;8.60;99.90
19781;DHT22;10050;55.492;13.506;2022-11-15T22:25:33;8.60;99.90
19781;DHT22;10050;55.492;13.506;2022-11-15T22:28:00;8.60;99.90
19781;DHT22;10050;55.492;13.506;2022-11-15T22:33:50;8.50;99.90
19781;DHT22;10050;55.492;13.506;2022-11-15T22:36:36;8.50;99.90
19781;DHT22;10050;55.492;13.506;2022-11-15T22:39:29;8.60;99.90
19781;DHT22;10050;55.492;13.506;2022-11-15T22:42:11;8.60;99.90
19781;DHT22;10050;55.492;13.506;2022-11-15T22:44:37;8.50;99.90
19781;DHT22;10050;55.492;13.506;2022-11-15T22:47:03;8.60;99.90
19781;DHT22;10050;55.492;13.506;2022-11-15T22:49:59;8.50;99.90
19781;DHT22;10050;55.492;13.506;2022-11-15T22:56:03;8.60;99.90
19781;DHT22;10050;55.492;13.506;2022-11-15T22:58:41;8.60;99.90
19781;DHT22;10050;55.492;13.506;2022-11-15T23:01:19;8.50;99.90
19781;DHT22;10050;55.492;13.506;2022-11-15T23:03:45;8.50;99.90
19781;DHT22;10050;55.492;13.506;2022-11-15T23:06:11;8.50;99.90
19781;DHT22;10050;55.492;13.506;2022-11-15T23:08:36;8.50;99.90
19781;DHT22;10050;55.492;13.506;2022-11-15T23:11:03;8.50;99.90
19781;DHT22;10050;55.492;13.506;2022-11-15T23:13:49;8.40;99.90
19781;DHT22;10050;55.492;13.506;2022-11-15T23:20:06;8.40;99.90
19781;DHT22;10050;55.492;13.506;2022-11-15T23:23:09;8.30;99.90
19781;DHT22;10050;55.492;13.506;2022-11-15T23:25:42;8.30;99.90
19781;DHT22;10050;55.492;13.506;2022-11-15T23:28:27;8.30;99.90
19781;DHT22;10050;55.492;13.506;2022-11-15T23:31:11;8.40;99.90
19781;DHT22;10050;55.492;13.506;2022-11-15T23:34:32;8.30;99.90
19781;DHT22;10050;55.492;13.506;2022-11-15T23:41:07;8.30;99.90
19781;DHT22;10050;55.492;13.506;2022-11-15T23:43:34;8.40;99.90
19781;DHT22;10050;55.492;13.506;2022-11-15T23:46:28;8.40;99.90
19781;DHT22;10050;55.492;13.506;2022-11-15T23:49:10;8.40;99.90
19781;DHT22;10050;55.492;13.506;2022-11-15T23:51:57;8.40;99.90
19781;DHT22;10050;55.492;13.506;2022-11-15T23:54:27;8.50;99.90
19781;DHT22;10050;55.492;13.506;2022-11-15T23:56:53;8.40;99.90
19781;DHT22;10050;55.492;13.506;2022-11-15T23:59:18;8.50;99.90
